sensor_id;sensor_type;location;lat;lon;timestamp;P1;durP1;ratioP1;P2;durP2;ratioP2
3911;SDS011;1971;51.778;10.330;2023-03-23T00:01:59;1.17;;;1.07;;
3911;SDS011;1971;51.778;10.330;2023-03-23T00:04:29;1.97;;;1.70;;
3911;SDS011;1971;51.778;10.330;2023-03-23T00:07:02;1.30;;;1.20;;
3911;SDS011;1971;51.778;10.330;2023-03-23T00:09:32;1.30;;;1.20;;
3911;SDS011;1971;51.778;10.330;2023-03-23T00:12:07;2.07;;;0.97;;
3911;SDS011;1971;51.778;10.330;2023-03-23T00:14:42;1.50;;;1.10;;
3911;SDS011;1971;51.778;10.330;2023-03-23T00:17:16;1.30;;;1.20;;
3911;SDS011;1971;51.778;10.330;2023-03-23T00:19:46;2.20;;;1.47;;
3911;SDS011;1971;51.778;10.330;2023-03-23T00:22:19;1.77;;;1.07;;
3911;SDS011;1971;51.778;10.330;2023-03-23T00:24:51;1.73;;;1.30;;
3911;SDS011;1971;51.778;10.330;2023-03-23T00:27:22;0.90;;;0.90;;
3911;SDS011;1971;51.778;10.330;2023-03-23T00:29:52;1.67;;;1.20;;
3911;SDS011;1971;51.778;10.330;2023-03-23T00:32:24;1.83;;;1.20;;
3911;SDS011;1971;51.778;10.330;2023-03-23T00:34:55;1.33;;;1.00;;
3911;SDS011;1971;51.778;10.330;2023-03-23T00:37:31;1.20;;;1.10;;
3911;SDS011;1971;51.778;10.330;2023-03-23T00:40:02;1.53;;;1.03;;
3911;SDS011;1971;51.778;10.330;2023-03-23T00:42:37;1.60;;;1.40;;
3911;SDS011;1971;51.778;10.330;2023-03-23T00:45:08;2.13;;;1.33;;
3911;SDS011;1971;51.778;10.330;2023-03-23T00:47:39;4.20;;;1.00;;
3911;SDS011;1971;51.778;10.330;2023-03-23T00:50:14;1.70;;;1.50;;
3911;SDS011;1971;51.778;10.330;2023-03-23T00:52:54;3.73;;;1.00;;
3911;SDS011;1971;51.778;10.330;2023-03-23T00:55:26;1.80;;;1.40;;
3911;SDS011;1971;51.778;10.330;2023-03-23T00:57:57;1.53;;;1.13;;
3911;SDS011;1971;51.778;10.330;2023-03-23T01:00:27;2.50;;;1.50;;
3911;SDS011;1971;51.778;10.330;2023-03-23T01:02:57;2.83;;;1.47;;
3911;SDS011;1971;51.778;10.330;2023-03-23T01:05:29;3.07;;;1.60;;
3911;SDS011;1971;51.778;10.330;2023-03-23T01:08:06;1.57;;;1.47;;
3911;SDS011;1971;51.778;10.330;2023-03-23T01:10:37;3.07;;;1.43;;
3911;SDS011;1971;51.778;10.330;2023-03-23T01:13:09;1.90;;;1.50;;
3911;SDS011;1971;51.778;10.330;2023-03-23T01:15:38;1.63;;;1.40;;
3911;SDS011;1971;51.778;10.330;2023-03-23T01:18:10;1.57;;;1.47;;
3911;SDS011;1971;51.778;10.330;2023-03-23T01:20:40;4.17;;;1.30;;
3911;SDS011;1971;51.778;10.330;2023-03-23T01:23:13;1.50;;;1.40;;
3911;SDS011;1971;51.778;10.330;2023-03-23T01:25:43;2.37;;;2.17;;
3911;SDS011;1971;51.778;10.330;2023-03-23T01:28:13;1.37;;;1.27;;
3911;SDS011;1971;51.778;10.330;2023-03-23T01:30:44;4.23;;;1.50;;
3911;SDS011;1971;51.778;10.330;2023-03-23T01:33:14;1.67;;;1.53;;
3911;SDS011;1971;51.778;10.330;2023-03-23T01:35:44;2.60;;;1.80;;
3911;SDS011;1971;51.778;10.330;2023-03-23T01:38:17;3.17;;;1.63;;
3911;SDS011;1971;51.778;10.330;2023-03-23T01:40:48;2.03;;;1.70;;
3911;SDS011;1971;51.778;10.330;2023-03-23T01:43:17;3.00;;;1.80;;
3911;SDS011;1971;51.778;10.330;2023-03-23T01:45:48;1.80;;;1.70;;
3911;SDS011;1971;51.778;10.330;2023-03-23T01:48:20;3.13;;;1.70;;
3911;SDS011;1971;51.778;10.330;2023-03-23T01:50:55;1.60;;;1.50;;
3911;SDS011;1971;51.778;10.330;2023-03-23T01:53:33;2.00;;;1.70;;
3911;SDS011;1971;51.778;10.330;2023-03-23T01:56:07;2.47;;;2.27;;
3911;SDS011;1971;51.778;10.330;2023-03-23T01:58:40;2.43;;;2.23;;
3911;SDS011;1971;51.778;10.330;2023-03-23T02:01:12;1.73;;;1.63;;
3911;SDS011;1971;51.778;10.330;2023-03-23T02:03:44;2.03;;;1.77;;
3911;SDS011;1971;51.778;10.330;2023-03-23T02:06:16;1.60;;;1.50;;
3911;SDS011;1971;51.778;10.330;2023-03-23T02:09:11;2.03;;;1.53;;
3911;SDS011;1971;51.778;10.330;2023-03-23T02:11:51;1.50;;;1.40;;
3911;SDS011;1971;51.778;10.330;2023-03-23T02:14:22;1.37;;;1.27;;
3911;SDS011;1971;51.778;10.330;2023-03-23T02:16:55;1.90;;;1.43;;
3911;SDS011;1971;51.778;10.330;2023-03-23T02:19:38;5.63;;;1.93;;
3911;SDS011;1971;51.778;10.330;2023-03-23T02:25:33;3.13;;;1.50;;
3911;SDS011;1971;51.778;10.330;2023-03-23T02:28:28;1.50;;;1.40;;
3911;SDS011;1971;51.778;10.330;2023-03-23T02:31:15;1.30;;;1.20;;
3911;SDS011;1971;51.778;10.330;2023-03-23T02:34:07;1.63;;;1.00;;
3911;SDS011;1971;51.778;10.330;2023-03-23T02:36:43;1.60;;;1.50;;
3911;SDS011;1971;51.778;10.330;2023-03-23T02:39:19;3.23;;;2.20;;
3911;SDS011;1971;51.778;10.330;2023-03-23T02:41:53;1.70;;;1.60;;
3911;SDS011;1971;51.778;10.330;2023-03-23T02:44:40;1.47;;;1.20;;
3911;SDS011;1971;51.778;10.330;2023-03-23T02:47:14;1.10;;;1.10;;
3911;SDS011;1971;51.778;10.330;2023-03-23T02:49:51;1.80;;;1.50;;
3911;SDS011;1971;51.778;10.330;2023-03-23T02:52:26;4.23;;;1.77;;
3911;SDS011;1971;51.778;10.330;2023-03-23T02:55:00;2.00;;;1.70;;
3911;SDS011;1971;51.778;10.330;2023-03-23T02:57:32;1.53;;;1.43;;
3911;SDS011;1971;51.778;10.330;2023-03-23T03:00:11;1.00;;;0.90;;
3911;SDS011;1971;51.778;10.330;2023-03-23T03:02:46;3.60;;;1.80;;
3911;SDS011;1971;51.778;10.330;2023-03-23T03:05:28;1.50;;;1.20;;
3911;SDS011;1971;51.778;10.330;2023-03-23T03:08:11;1.50;;;1.40;;
3911;SDS011;1971;51.778;10.330;2023-03-23T03:10:49;1.50;;;1.40;;
3911;SDS011;1971;51.778;10.330;2023-03-23T03:13:30;1.77;;;1.67;;
3911;SDS011;1971;51.778;10.330;2023-03-23T03:16:12;1.70;;;1.60;;
3911;SDS011;1971;51.778;10.330;2023-03-23T03:18:50;1.70;;;1.60;;
3911;SDS011;1971;51.778;10.330;2023-03-23T03:21:28;1.67;;;1.57;;
3911;SDS011;1971;51.778;10.330;2023-03-23T03:24:02;2.10;;;1.93;;
3911;SDS011;1971;51.778;10.330;2023-03-23T03:26:38;1.53;;;1.43;;
3911;SDS011;1971;51.778;10.330;2023-03-23T03:29:22;4.93;;;1.50;;
3911;SDS011;1971;51.778;10.330;2023-03-23T03:31:57;4.30;;;1.60;;
3911;SDS011;1971;51.778;10.330;2023-03-23T03:34:32;1.70;;;1.60;;
3911;SDS011;1971;51.778;10.330;2023-03-23T03:37:07;1.70;;;1.60;;
3911;SDS011;1971;51.778;10.330;2023-03-23T03:39:38;1.87;;;1.60;;
3911;SDS011;1971;51.778;10.330;2023-03-23T03:42:09;1.90;;;1.30;;
3911;SDS011;1971;51.778;10.330;2023-03-23T03:44:40;1.90;;;1.50;;
3911;SDS011;1971;51.778;10.330;2023-03-23T03:47:10;2.43;;;2.17;;
3911;SDS011;1971;51.778;10.330;2023-03-23T03:49:40;2.47;;;1.80;;
3911;SDS011;1971;51.778;10.330;2023-03-23T03:52:13;2.03;;;1.87;;
3911;SDS011;1971;51.778;10.330;2023-03-23T03:54:43;2.70;;;2.00;;
3911;SDS011;1971;51.778;10.330;2023-03-23T03:57:14;2.37;;;2.17;;
3911;SDS011;1971;51.778;10.330;2023-03-23T04:00:03;1.80;;;1.70;;
3911;SDS011;1971;51.778;10.330;2023-03-23T04:02:41;2.07;;;1.97;;
3911;SDS011;1971;51.778;10.330;2023-03-23T04:05:15;2.60;;;2.20;;
3911;SDS011;1971;51.778;10.330;2023-03-23T04:07:51;2.60;;;2.40;;
3911;SDS011;1971;51.778;10.330;2023-03-23T04:10:35;3.50;;;1.80;;
3911;SDS011;1971;51.778;10.330;2023-03-23T04:13:07;2.90;;;2.20;;
3911;SDS011;1971;51.778;10.330;2023-03-23T04:15:40;2.57;;;2.00;;
3911;SDS011;1971;51.778;10.330;2023-03-23T04:18:31;2.60;;;2.40;;
3911;SDS011;1971;51.778;10.330;2023-03-23T04:21:03;1.97;;;1.80;;
3911;SDS011;1971;51.778;10.330;2023-03-23T04:23:37;2.10;;;2.00;;
3911;SDS011;1971;51.778;10.330;2023-03-23T04:26:08;2.73;;;2.53;;
3911;SDS011;1971;51.778;10.330;2023-03-23T04:28:43;2.53;;;2.33;;
3911;SDS011;1971;51.778;10.330;2023-03-23T04:31:37;2.90;;;2.67;;
3911;SDS011;1971;51.778;10.330;2023-03-23T04:34:22;3.10;;;2.40;;
3911;SDS011;1971;51.778;10.330;2023-03-23T04:36:53;2.40;;;2.20;;
3911;SDS011;1971;51.778;10.330;2023-03-23T04:39:29;2.70;;;2.30;;
3911;SDS011;1971;51.778;10.330;2023-03-23T04:42:02;4.10;;;2.87;;
3911;SDS011;1971;51.778;10.330;2023-03-23T04:44:54;4.20;;;2.73;;
3911;SDS011;1971;51.778;10.330;2023-03-23T04:47:32;2.90;;;2.70;;
3911;SDS011;1971;51.778;10.330;2023-03-23T04:50:16;2.07;;;1.97;;
3911;SDS011;1971;51.778;10.330;2023-03-23T04:52:46;3.17;;;2.87;;
3911;SDS011;1971;51.778;10.330;2023-03-23T04:55:20;2.83;;;2.07;;
3911;SDS011;1971;51.778;10.330;2023-03-23T04:57:55;2.90;;;2.70;;
3911;SDS011;1971;51.778;10.330;2023-03-23T05:00:39;3.70;;;2.57;;
3911;SDS011;1971;51.778;10.330;2023-03-23T05:03:17;2.73;;;2.53;;
3911;SDS011;1971;51.778;10.330;2023-03-23T05:05:49;3.00;;;2.80;;
3911;SDS011;1971;51.778;10.330;2023-03-23T05:08:21;2.93;;;2.60;;
3911;SDS011;1971;51.778;10.330;2023-03-23T05:10:55;2.73;;;2.53;;
3911;SDS011;1971;51.778;10.330;2023-03-23T05:13:32;3.10;;;2.80;;
3911;SDS011;1971;51.778;10.330;2023-03-23T05:16:03;2.70;;;2.50;;
3911;SDS011;1971;51.778;10.330;2023-03-23T05:18:37;3.63;;;3.33;;
3911;SDS011;1971;51.778;10.330;2023-03-23T05:21:10;3.60;;;3.30;;
3911;SDS011;1971;51.778;10.330;2023-03-23T05:23:45;3.00;;;2.80;;
3911;SDS011;1971;51.778;10.330;2023-03-23T05:26:24;4.13;;;3.00;;
3911;SDS011;1971;51.778;10.330;2023-03-23T05:29:04;3.80;;;3.43;;
3911;SDS011;1971;51.778;10.330;2023-03-23T05:31:47;3.07;;;2.87;;
3911;SDS011;1971;51.778;10.330;2023-03-23T05:34:17;4.37;;;3.27;;
3911;SDS011;1971;51.778;10.330;2023-03-23T05:36:52;3.10;;;2.90;;
3911;SDS011;1971;51.778;10.330;2023-03-23T05:39:28;2.80;;;2.60;;
3911;SDS011;1971;51.778;10.330;2023-03-23T05:42:34;3.50;;;2.60;;
3911;SDS011;1971;51.778;10.330;2023-03-23T05:45:13;3.80;;;2.50;;
3911;SDS011;1971;51.778;10.330;2023-03-23T05:47:45;2.73;;;2.30;;
3911;SDS011;1971;51.778;10.330;2023-03-23T05:50:19;2.80;;;2.60;;
3911;SDS011;1971;51.778;10.330;2023-03-23T05:52:49;2.40;;;2.20;;
3911;SDS011;1971;51.778;10.330;2023-03-23T05:55:21;2.10;;;2.00;;
3911;SDS011;1971;51.778;10.330;2023-03-23T05:58:04;3.60;;;3.30;;
3911;SDS011;1971;51.778;10.330;2023-03-23T06:00:37;2.97;;;2.70;;
3911;SDS011;1971;51.778;10.330;2023-03-23T06:03:28;2.83;;;2.53;;
3911;SDS011;1971;51.778;10.330;2023-03-23T06:06:24;3.30;;;3.00;;
3911;SDS011;1971;51.778;10.330;2023-03-23T06:09:10;2.20;;;2.10;;
3911;SDS011;1971;51.778;10.330;2023-03-23T06:12:09;1.93;;;1.83;;
3911;SDS011;1971;51.778;10.330;2023-03-23T06:14:49;3.00;;;2.70;;
3911;SDS011;1971;51.778;10.330;2023-03-23T06:17:26;3.30;;;3.00;;
3911;SDS011;1971;51.778;10.330;2023-03-23T06:19:56;2.70;;;2.50;;
3911;SDS011;1971;51.778;10.330;2023-03-23T06:22:26;3.47;;;3.17;;
3911;SDS011;1971;51.778;10.330;2023-03-23T06:25:06;3.33;;;3.00;;
3911;SDS011;1971;51.778;10.330;2023-03-23T06:27:40;3.60;;;3.30;;
3911;SDS011;1971;51.778;10.330;2023-03-23T06:30:15;3.80;;;3.50;;
3911;SDS011;1971;51.778;10.330;2023-03-23T06:32:45;3.20;;;3.00;;
3911;SDS011;1971;51.778;10.330;2023-03-23T06:35:20;3.27;;;3.07;;
3911;SDS011;1971;51.778;10.330;2023-03-23T06:38:07;3.70;;;3.40;;
3911;SDS011;1971;51.778;10.330;2023-03-23T06:40:45;3.50;;;3.20;;
3911;SDS011;1971;51.778;10.330;2023-03-23T06:43:17;3.67;;;3.37;;
3911;SDS011;1971;51.778;10.330;2023-03-23T06:45:57;2.50;;;2.30;;
3911;SDS011;1971;51.778;10.330;2023-03-23T06:48:40;2.80;;;2.60;;
3911;SDS011;1971;51.778;10.330;2023-03-23T06:51:15;3.20;;;3.00;;
3911;SDS011;1971;51.778;10.330;2023-03-23T06:53:49;3.87;;;3.50;;
3911;SDS011;1971;51.778;10.330;2023-03-23T06:56:19;2.93;;;2.73;;
3911;SDS011;1971;51.778;10.330;2023-03-23T06:58:49;3.03;;;2.73;;
3911;SDS011;1971;51.778;10.330;2023-03-23T07:01:24;2.77;;;2.57;;
3911;SDS011;1971;51.778;10.330;2023-03-23T07:03:58;2.87;;;2.67;;
3911;SDS011;1971;51.778;10.330;2023-03-23T07:06:58;2.50;;;2.30;;
3911;SDS011;1971;51.778;10.330;2023-03-23T07:09:31;2.50;;;2.30;;
3911;SDS011;1971;51.778;10.330;2023-03-23T07:12:08;2.37;;;2.17;;
3911;SDS011;1971;51.778;10.330;2023-03-23T07:14:44;2.77;;;2.57;;
3911;SDS011;1971;51.778;10.330;2023-03-23T07:17:16;2.60;;;2.47;;
3911;SDS011;1971;51.778;10.330;2023-03-23T07:20:00;3.07;;;2.70;;
3911;SDS011;1971;51.778;10.330;2023-03-23T07:22:30;3.03;;;2.50;;
3911;SDS011;1971;51.778;10.330;2023-03-23T07:25:12;2.20;;;2.00;;
3911;SDS011;1971;51.778;10.330;2023-03-23T07:27:49;2.30;;;2.20;;
3911;SDS011;1971;51.778;10.330;2023-03-23T07:30:20;2.37;;;2.10;;
3911;SDS011;1971;51.778;10.330;2023-03-23T07:32:57;2.53;;;2.20;;
3911;SDS011;1971;51.778;10.330;2023-03-23T07:35:27;2.07;;;1.80;;
3911;SDS011;1971;51.778;10.330;2023-03-23T07:38:02;2.10;;;2.00;;
3911;SDS011;1971;51.778;10.330;2023-03-23T07:40:33;2.93;;;2.40;;
3911;SDS011;1971;51.778;10.330;2023-03-23T07:43:09;2.73;;;2.20;;
3911;SDS011;1971;51.778;10.330;2023-03-23T07:45:58;1.90;;;1.80;;
3911;SDS011;1971;51.778;10.330;2023-03-23T07:48:46;1.90;;;1.80;;
3911;SDS011;1971;51.778;10.330;2023-03-23T07:51:18;2.20;;;2.10;;
3911;SDS011;1971;51.778;10.330;2023-03-23T07:53:50;2.40;;;2.20;;
3911;SDS011;1971;51.778;10.330;2023-03-23T07:56:42;2.13;;;2.03;;
3911;SDS011;1971;51.778;10.330;2023-03-23T07:59:15;1.67;;;1.57;;
3911;SDS011;1971;51.778;10.330;2023-03-23T08:01:45;2.27;;;2.17;;
3911;SDS011;1971;51.778;10.330;2023-03-23T08:04:33;2.57;;;2.37;;
3911;SDS011;1971;51.778;10.330;2023-03-23T08:07:11;1.93;;;1.83;;
3911;SDS011;1971;51.778;10.330;2023-03-23T08:09:45;2.00;;;1.90;;
3911;SDS011;1971;51.778;10.330;2023-03-23T08:12:28;2.07;;;1.97;;
3911;SDS011;1971;51.778;10.330;2023-03-23T08:15:17;3.27;;;2.03;;
3911;SDS011;1971;51.778;10.330;2023-03-23T08:17:58;2.13;;;2.03;;
3911;SDS011;1971;51.778;10.330;2023-03-23T08:20:50;1.83;;;1.67;;
3911;SDS011;1971;51.778;10.330;2023-03-23T08:23:52;1.77;;;1.67;;
3911;SDS011;1971;51.778;10.330;2023-03-23T08:26:47;2.60;;;2.00;;
3911;SDS011;1971;51.778;10.330;2023-03-23T08:29:35;2.10;;;2.00;;
3911;SDS011;1971;51.778;10.330;2023-03-23T08:32:21;3.73;;;2.63;;
3911;SDS011;1971;51.778;10.330;2023-03-23T08:35:30;1.80;;;1.70;;
3911;SDS011;1971;51.778;10.330;2023-03-23T08:41:50;1.93;;;1.83;;
3911;SDS011;1971;51.778;10.330;2023-03-23T08:44:52;2.13;;;2.00;;
3911;SDS011;1971;51.778;10.330;2023-03-23T08:47:45;2.40;;;1.80;;
3911;SDS011;1971;51.778;10.330;2023-03-23T08:50:31;2.70;;;2.00;;
3911;SDS011;1971;51.778;10.330;2023-03-23T08:53:26;2.00;;;1.90;;
3911;SDS011;1971;51.778;10.330;2023-03-23T08:56:34;1.70;;;1.60;;
3911;SDS011;1971;51.778;10.330;2023-03-23T08:59:10;2.30;;;2.13;;
3911;SDS011;1971;51.778;10.330;2023-03-23T09:02:00;2.33;;;2.13;;
3911;SDS011;1971;51.778;10.330;2023-03-23T09:04:50;1.90;;;1.80;;
3911;SDS011;1971;51.778;10.330;2023-03-23T09:07:40;2.40;;;2.20;;
3911;SDS011;1971;51.778;10.330;2023-03-23T09:10:12;2.03;;;1.83;;
3911;SDS011;1971;51.778;10.330;2023-03-23T09:12:45;2.13;;;1.77;;
3911;SDS011;1971;51.778;10.330;2023-03-23T09:15:16;2.10;;;2.00;;
3911;SDS011;1971;51.778;10.330;2023-03-23T09:17:57;1.80;;;1.70;;
3911;SDS011;1971;51.778;10.330;2023-03-23T09:20:28;2.70;;;2.17;;
3911;SDS011;1971;51.778;10.330;2023-03-23T09:22:58;1.80;;;1.70;;
3911;SDS011;1971;51.778;10.330;2023-03-23T09:25:28;3.43;;;1.90;;
3911;SDS011;1971;51.778;10.330;2023-03-23T09:28:01;1.77;;;1.67;;
3911;SDS011;1971;51.778;10.330;2023-03-23T09:30:35;1.87;;;1.67;;
3911;SDS011;1971;51.778;10.330;2023-03-23T09:33:21;2.50;;;1.97;;
3911;SDS011;1971;51.778;10.330;2023-03-23T09:35:56;2.80;;;2.27;;
3911;SDS011;1971;51.778;10.330;2023-03-23T09:38:37;1.73;;;1.63;;
3911;SDS011;1971;51.778;10.330;2023-03-23T09:41:27;2.13;;;1.70;;
3911;SDS011;1971;51.778;10.330;2023-03-23T09:44:17;3.00;;;1.67;;
3911;SDS011;1971;51.778;10.330;2023-03-23T09:46:58;2.87;;;2.03;;
3911;SDS011;1971;51.778;10.330;2023-03-23T09:49:37;2.43;;;1.63;;
3911;SDS011;1971;51.778;10.330;2023-03-23T09:52:41;1.60;;;1.50;;
3911;SDS011;1971;51.778;10.330;2023-03-23T09:55:17;1.93;;;1.60;;
3911;SDS011;1971;51.778;10.330;2023-03-23T09:57:50;2.00;;;1.73;;
3911;SDS011;1971;51.778;10.330;2023-03-23T10:00:35;1.60;;;1.30;;
3911;SDS011;1971;51.778;10.330;2023-03-23T10:03:13;3.17;;;1.57;;
3911;SDS011;1971;51.778;10.330;2023-03-23T10:05:45;2.17;;;1.97;;
3911;SDS011;1971;51.778;10.330;2023-03-23T10:08:17;6.03;;;1.77;;
3911;SDS011;1971;51.778;10.330;2023-03-23T10:10:52;2.03;;;1.83;;
3911;SDS011;1971;51.778;10.330;2023-03-23T10:13:32;5.87;;;1.97;;
3911;SDS011;1971;51.778;10.330;2023-03-23T10:16:27;1.87;;;1.77;;
3911;SDS011;1971;51.778;10.330;2023-03-23T10:19:03;2.40;;;1.80;;
3911;SDS011;1971;51.778;10.330;2023-03-23T10:21:43;2.10;;;1.50;;
3911;SDS011;1971;51.778;10.330;2023-03-23T10:24:17;1.77;;;1.50;;
3911;SDS011;1971;51.778;10.330;2023-03-23T10:26:53;2.07;;;1.93;;
3911;SDS011;1971;51.778;10.330;2023-03-23T10:29:29;1.80;;;1.70;;
3911;SDS011;1971;51.778;10.330;2023-03-23T10:32:11;1.60;;;1.50;;
3911;SDS011;1971;51.778;10.330;2023-03-23T10:34:44;1.83;;;1.70;;
3911;SDS011;1971;51.778;10.330;2023-03-23T10:37:19;2.13;;;1.70;;
3911;SDS011;1971;51.778;10.330;2023-03-23T10:39:52;2.13;;;1.93;;
3911;SDS011;1971;51.778;10.330;2023-03-23T10:42:26;2.80;;;1.60;;
3911;SDS011;1971;51.778;10.330;2023-03-23T10:44:58;3.00;;;1.87;;
3911;SDS011;1971;51.778;10.330;2023-03-23T10:47:33;1.83;;;1.73;;
3911;SDS011;1971;51.778;10.330;2023-03-23T10:50:10;1.63;;;1.53;;
3911;SDS011;1971;51.778;10.330;2023-03-23T10:52:43;2.40;;;2.13;;
3911;SDS011;1971;51.778;10.330;2023-03-23T10:55:14;1.90;;;1.80;;
3911;SDS011;1971;51.778;10.330;2023-03-23T10:57:47;3.00;;;2.00;;
3911;SDS011;1971;51.778;10.330;2023-03-23T11:00:29;2.27;;;2.07;;
3911;SDS011;1971;51.778;10.330;2023-03-23T11:03:04;1.77;;;1.67;;
3911;SDS011;1971;51.778;10.330;2023-03-23T11:05:38;1.73;;;1.63;;
3911;SDS011;1971;51.778;10.330;2023-03-23T11:08:11;2.57;;;2.37;;
3911;SDS011;1971;51.778;10.330;2023-03-23T11:10:47;2.20;;;1.70;;
3911;SDS011;1971;51.778;10.330;2023-03-23T11:13:20;1.83;;;1.50;;
3911;SDS011;1971;51.778;10.330;2023-03-23T11:15:52;3.70;;;1.57;;
3911;SDS011;1971;51.778;10.330;2023-03-23T11:18:26;3.00;;;2.30;;
3911;SDS011;1971;51.778;10.330;2023-03-23T11:21:04;3.33;;;1.97;;
3911;SDS011;1971;51.778;10.330;2023-03-23T11:23:37;2.33;;;2.13;;
3911;SDS011;1971;51.778;10.330;2023-03-23T11:26:10;1.87;;;1.77;;
3911;SDS011;1971;51.778;10.330;2023-03-23T11:28:44;1.70;;;1.60;;
3911;SDS011;1971;51.778;10.330;2023-03-23T11:31:17;1.20;;;1.10;;
3911;SDS011;1971;51.778;10.330;2023-03-23T11:33:55;1.50;;;1.40;;
3911;SDS011;1971;51.778;10.330;2023-03-23T11:36:32;1.90;;;1.60;;
3911;SDS011;1971;51.778;10.330;2023-03-23T11:39:18;2.37;;;2.17;;
3911;SDS011;1971;51.778;10.330;2023-03-23T11:41:50;1.83;;;1.70;;
3911;SDS011;1971;51.778;10.330;2023-03-23T11:44:39;1.87;;;1.77;;
3911;SDS011;1971;51.778;10.330;2023-03-23T11:47:15;2.13;;;1.87;;
3911;SDS011;1971;51.778;10.330;2023-03-23T11:49:54;1.83;;;1.70;;
3911;SDS011;1971;51.778;10.330;2023-03-23T11:52:32;2.40;;;1.30;;
3911;SDS011;1971;51.778;10.330;2023-03-23T11:55:09;1.60;;;1.50;;
3911;SDS011;1971;51.778;10.330;2023-03-23T11:57:42;1.90;;;1.43;;
3911;SDS011;1971;51.778;10.330;2023-03-23T12:00:15;1.67;;;1.53;;
3911;SDS011;1971;51.778;10.330;2023-03-23T12:02:48;2.40;;;2.20;;
3911;SDS011;1971;51.778;10.330;2023-03-23T12:05:39;1.90;;;1.50;;
3911;SDS011;1971;51.778;10.330;2023-03-23T12:08:17;2.33;;;1.67;;
3911;SDS011;1971;51.778;10.330;2023-03-23T12:11:00;2.87;;;1.87;;
3911;SDS011;1971;51.778;10.330;2023-03-23T12:13:39;3.77;;;1.70;;
3911;SDS011;1971;51.778;10.330;2023-03-23T12:16:28;2.23;;;1.80;;
3911;SDS011;1971;51.778;10.330;2023-03-23T12:19:10;1.63;;;1.33;;
3911;SDS011;1971;51.778;10.330;2023-03-23T12:21:52;1.60;;;1.33;;
3911;SDS011;1971;51.778;10.330;2023-03-23T12:24:33;1.87;;;1.60;;
3911;SDS011;1971;51.778;10.330;2023-03-23T12:27:15;2.40;;;1.47;;
3911;SDS011;1971;51.778;10.330;2023-03-23T12:29:56;2.03;;;1.67;;
3911;SDS011;1971;51.778;10.330;2023-03-23T12:32:58;5.10;;;1.50;;
3911;SDS011;1971;51.778;10.330;2023-03-23T12:35:44;3.70;;;1.57;;
3911;SDS011;1971;51.778;10.330;2023-03-23T12:38:35;1.60;;;1.17;;
3911;SDS011;1971;51.778;10.330;2023-03-23T12:41:18;4.50;;;1.67;;
3911;SDS011;1971;51.778;10.330;2023-03-23T12:43:57;3.93;;;1.43;;
3911;SDS011;1971;51.778;10.330;2023-03-23T12:49:26;3.37;;;1.43;;
3911;SDS011;1971;51.778;10.330;2023-03-23T12:52:02;1.43;;;1.30;;
3911;SDS011;1971;51.778;10.330;2023-03-23T12:54:41;1.53;;;1.43;;
3911;SDS011;1971;51.778;10.330;2023-03-23T12:57:19;1.90;;;1.20;;
3911;SDS011;1971;51.778;10.330;2023-03-23T12:59:56;1.77;;;1.40;;
3911;SDS011;1971;51.778;10.330;2023-03-23T13:02:39;3.33;;;1.27;;
3911;SDS011;1971;51.778;10.330;2023-03-23T13:05:27;1.47;;;1.30;;
3911;SDS011;1971;51.778;10.330;2023-03-23T13:08:04;5.27;;;1.90;;
3911;SDS011;1971;51.778;10.330;2023-03-23T13:10:44;1.60;;;1.40;;
3911;SDS011;1971;51.778;10.330;2023-03-23T13:13:17;2.43;;;1.27;;
3911;SDS011;1971;51.778;10.330;2023-03-23T13:15:55;1.60;;;1.47;;
3911;SDS011;1971;51.778;10.330;2023-03-23T13:18:37;2.20;;;1.57;;
3911;SDS011;1971;51.778;10.330;2023-03-23T13:21:15;1.83;;;1.20;;
3911;SDS011;1971;51.778;10.330;2023-03-23T13:23:50;3.73;;;1.20;;
3911;SDS011;1971;51.778;10.330;2023-03-23T13:26:27;1.80;;;1.33;;
3911;SDS011;1971;51.778;10.330;2023-03-23T13:28:58;0.97;;;0.87;;
3911;SDS011;1971;51.778;10.330;2023-03-23T13:31:30;1.53;;;1.17;;
3911;SDS011;1971;51.778;10.330;2023-03-23T13:34:03;2.03;;;1.27;;
3911;SDS011;1971;51.778;10.330;2023-03-23T13:36:35;2.47;;;0.90;;
3911;SDS011;1971;51.778;10.330;2023-03-23T13:39:16;2.40;;;1.63;;
3911;SDS011;1971;51.778;10.330;2023-03-23T13:42:19;1.90;;;1.00;;
3911;SDS011;1971;51.778;10.330;2023-03-23T13:47:50;1.73;;;1.00;;
3911;SDS011;1971;51.778;10.330;2023-03-23T13:50:43;2.30;;;1.20;;
3911;SDS011;1971;51.778;10.330;2023-03-23T13:53:22;1.30;;;1.00;;
3911;SDS011;1971;51.778;10.330;2023-03-23T13:56:06;3.13;;;0.90;;
3911;SDS011;1971;51.778;10.330;2023-03-23T13:59:12;2.00;;;1.00;;
3911;SDS011;1971;51.778;10.330;2023-03-23T14:05:07;2.30;;;0.70;;
3911;SDS011;1971;51.778;10.330;2023-03-23T14:07:56;3.63;;;1.43;;
3911;SDS011;1971;51.778;10.330;2023-03-23T14:10:34;0.70;;;0.70;;
3911;SDS011;1971;51.778;10.330;2023-03-23T14:13:06;1.07;;;0.97;;
3911;SDS011;1971;51.778;10.330;2023-03-23T14:15:54;1.43;;;1.10;;
3911;SDS011;1971;51.778;10.330;2023-03-23T14:18:29;1.17;;;0.70;;
3911;SDS011;1971;51.778;10.330;2023-03-23T14:21:02;1.07;;;0.93;;
3911;SDS011;1971;51.778;10.330;2023-03-23T14:23:37;0.90;;;0.90;;
3911;SDS011;1971;51.778;10.330;2023-03-23T14:26:09;1.10;;;1.00;;
3911;SDS011;1971;51.778;10.330;2023-03-23T14:28:42;1.30;;;1.03;;
3911;SDS011;1971;51.778;10.330;2023-03-23T14:31:17;1.23;;;1.13;;
3911;SDS011;1971;51.778;10.330;2023-03-23T14:33:50;0.70;;;0.70;;
3911;SDS011;1971;51.778;10.330;2023-03-23T14:36:21;1.50;;;0.90;;
3911;SDS011;1971;51.778;10.330;2023-03-23T14:38:56;1.10;;;1.00;;
3911;SDS011;1971;51.778;10.330;2023-03-23T14:41:29;0.70;;;0.70;;
3911;SDS011;1971;51.778;10.330;2023-03-23T14:44:01;3.20;;;1.07;;
3911;SDS011;1971;51.778;10.330;2023-03-23T14:46:35;2.70;;;1.00;;
3911;SDS011;1971;51.778;10.330;2023-03-23T14:49:06;0.87;;;0.87;;
3911;SDS011;1971;51.778;10.330;2023-03-23T14:51:36;3.07;;;0.70;;
3911;SDS011;1971;51.778;10.330;2023-03-23T14:54:07;0.93;;;0.77;;
3911;SDS011;1971;51.778;10.330;2023-03-23T14:56:38;0.90;;;0.90;;
3911;SDS011;1971;51.778;10.330;2023-03-23T14:59:10;1.13;;;0.90;;
3911;SDS011;1971;51.778;10.330;2023-03-23T15:01:42;1.57;;;0.97;;
3911;SDS011;1971;51.778;10.330;2023-03-23T15:04:15;0.80;;;0.70;;
3911;SDS011;1971;51.778;10.330;2023-03-23T15:06:48;1.10;;;1.00;;
3911;SDS011;1971;51.778;10.330;2023-03-23T15:09:21;1.60;;;0.97;;
3911;SDS011;1971;51.778;10.330;2023-03-23T15:11:54;2.20;;;0.70;;
3911;SDS011;1971;51.778;10.330;2023-03-23T15:14:27;3.47;;;1.20;;
3911;SDS011;1971;51.778;10.330;2023-03-23T15:17:02;1.57;;;0.80;;
3911;SDS011;1971;51.778;10.330;2023-03-23T15:19:33;0.90;;;0.90;;
3911;SDS011;1971;51.778;10.330;2023-03-23T15:22:16;1.50;;;1.20;;
3911;SDS011;1971;51.778;10.330;2023-03-23T15:24:52;0.97;;;0.90;;
3911;SDS011;1971;51.778;10.330;2023-03-23T15:27:31;1.13;;;1.00;;
3911;SDS011;1971;51.778;10.330;2023-03-23T15:30:11;2.60;;;1.00;;
3911;SDS011;1971;51.778;10.330;2023-03-23T15:32:45;1.03;;;0.93;;
3911;SDS011;1971;51.778;10.330;2023-03-23T15:35:20;0.60;;;0.60;;
3911;SDS011;1971;51.778;10.330;2023-03-23T15:37:52;0.77;;;0.70;;
3911;SDS011;1971;51.778;10.330;2023-03-23T15:40:32;1.07;;;0.93;;
3911;SDS011;1971;51.778;10.330;2023-03-23T15:43:07;1.33;;;1.23;;
3911;SDS011;1971;51.778;10.330;2023-03-23T15:45:55;2.40;;;1.00;;
3911;SDS011;1971;51.778;10.330;2023-03-23T15:48:34;1.30;;;0.90;;
3911;SDS011;1971;51.778;10.330;2023-03-23T15:51:16;0.90;;;0.80;;
3911;SDS011;1971;51.778;10.330;2023-03-23T15:53:48;0.90;;;0.80;;
3911;SDS011;1971;51.778;10.330;2023-03-23T15:56:23;3.13;;;1.47;;
3911;SDS011;1971;51.778;10.330;2023-03-23T15:58:56;1.67;;;0.87;;
3911;SDS011;1971;51.778;10.330;2023-03-23T16:01:28;1.73;;;1.00;;
3911;SDS011;1971;51.778;10.330;2023-03-23T16:04:06;0.80;;;0.80;;
3911;SDS011;1971;51.778;10.330;2023-03-23T16:06:39;1.87;;;1.50;;
3911;SDS011;1971;51.778;10.330;2023-03-23T16:09:12;1.30;;;1.03;;
3911;SDS011;1971;51.778;10.330;2023-03-23T16:11:44;2.00;;;1.40;;
3911;SDS011;1971;51.778;10.330;2023-03-23T16:14:14;1.40;;;1.30;;
3911;SDS011;1971;51.778;10.330;2023-03-23T16:16:45;1.30;;;1.20;;
3911;SDS011;1971;51.778;10.330;2023-03-23T16:19:21;1.20;;;1.10;;